createdAt,value
2023-04-23T00:02:19.374Z,24.00
2023-04-23T00:04:52.597Z,24.00
2023-04-23T00:07:22.162Z,24.00
2023-04-23T00:09:53.662Z,24.00
2023-04-23T00:12:22.355Z,24.00
2023-04-23T00:14:51.201Z,24.00
2023-04-23T00:17:20.857Z,24.00
2023-04-23T00:19:49.038Z,24.00
2023-04-23T00:22:18.008Z,24.00
2023-04-23T00:24:48.103Z,24.00
2023-04-23T00:27:18.045Z,24.00
2023-04-23T00:29:46.514Z,24.00
2023-04-23T00:32:16.070Z,24.00
2023-04-23T00:34:48.721Z,24.00
2023-04-23T00:37:16.851Z,24.00
2023-04-23T00:39:45.619Z,24.00
2023-04-23T00:42:17.022Z,24.00
2023-04-23T00:44:45.268Z,24.00
2023-04-23T00:47:13.579Z,24.00
2023-04-23T00:49:43.660Z,24.00
2023-04-23T00:52:13.442Z,24.00
2023-04-23T00:54:41.845Z,24.00
2023-04-23T00:57:10.314Z,24.00
2023-04-23T00:59:38.662Z,23.90
2023-04-23T01:02:06.962Z,23.90
2023-04-23T01:04:36.466Z,23.90
2023-04-23T01:07:05.847Z,23.90
2023-04-23T01:09:35.468Z,23.90
2023-04-23T01:12:06.512Z,23.90
2023-04-23T01:14:35.426Z,23.90
2023-04-23T01:17:03.763Z,23.90
2023-04-23T01:19:32.046Z,23.90
2023-04-23T01:22:01.931Z,23.90
2023-04-23T01:24:32.659Z,23.90
2023-04-23T01:27:01.649Z,23.90
2023-04-23T01:29:31.162Z,23.90
2023-04-23T01:32:00.284Z,23.90
2023-04-23T01:34:28.478Z,23.90
2023-04-23T01:36:58.034Z,23.90
2023-04-23T01:39:26.366Z,23.90
2023-04-23T01:41:57.049Z,23.80
2023-04-23T01:44:25.187Z,23.80
2023-04-23T01:46:53.662Z,23.80
2023-04-23T01:49:21.935Z,23.80
2023-04-23T01:51:50.492Z,23.80
2023-04-23T01:54:18.636Z,23.80
2023-04-23T01:56:47.041Z,23.80
2023-04-23T01:59:16.600Z,23.80
2023-04-23T02:01:47.085Z,23.80
2023-04-23T02:04:17.071Z,23.80
2023-04-23T02:06:48.490Z,23.80
2023-04-23T02:09:16.817Z,23.80
2023-04-23T02:11:44.980Z,23.80
2023-04-23T02:14:13.162Z,23.80
2023-04-23T02:16:43.414Z,23.80
2023-04-23T02:19:14.050Z,23.80
2023-04-23T02:21:43.591Z,23.80
2023-04-23T02:24:11.968Z,23.80
2023-04-23T02:26:40.154Z,23.80
2023-04-23T02:29:08.326Z,23.80
2023-04-23T02:31:36.496Z,23.80
2023-04-23T02:34:06.368Z,23.80
2023-04-23T02:36:34.531Z,23.80
2023-04-23T02:39:02.682Z,23.80
2023-04-23T02:41:31.046Z,23.80
2023-04-23T02:43:59.685Z,23.80
2023-04-23T02:46:29.338Z,23.80
2023-04-23T02:48:57.479Z,23.80
2023-04-23T02:51:27.389Z,23.80
2023-04-23T02:53:55.595Z,23.80
2023-04-23T02:56:23.843Z,23.80
2023-04-23T02:58:52.036Z,23.80
2023-04-23T03:01:20.608Z,23.80
2023-04-23T03:03:49.128Z,23.80
2023-04-23T03:06:17.928Z,23.80
2023-04-23T03:08:48.701Z,23.80
2023-04-23T03:11:16.880Z,23.70
2023-04-23T03:13:45.087Z,23.70
2023-04-23T03:16:13.836Z,23.70
2023-04-23T03:18:42.148Z,23.70
2023-04-23T03:21:10.325Z,23.70
2023-04-23T03:23:38.588Z,23.70
2023-04-23T03:26:08.952Z,23.70
2023-04-23T03:28:37.207Z,23.70
2023-04-23T03:31:05.825Z,23.70
2023-04-23T03:33:34.074Z,23.70
2023-04-23T03:36:02.310Z,23.70
2023-04-23T03:38:33.310Z,23.70
2023-04-23T03:41:03.258Z,23.70
2023-04-23T03:43:32.777Z,23.70
2023-04-23T03:46:06.922Z,23.70
2023-04-23T03:48:41.621Z,23.60
2023-04-23T03:51:23.908Z,23.60
2023-04-23T03:53:55.813Z,23.70
2023-04-23T03:56:35.544Z,23.60
2023-04-23T03:59:16.408Z,23.70
2023-04-23T04:01:46.100Z,23.70
2023-04-23T04:04:14.496Z,23.70
2023-04-23T04:06:43.016Z,23.80
2023-04-23T04:09:11.270Z,23.80
2023-04-23T04:11:42.397Z,23.80
2023-04-23T04:14:10.925Z,23.90
2023-04-23T04:16:43.459Z,23.90
2023-04-23T04:19:12.107Z,24.00
2023-04-23T04:21:40.287Z,24.00
2023-04-23T04:24:08.718Z,24.00
2023-04-23T04:26:37.318Z,24.00
2023-04-23T04:29:05.672Z,24.00
2023-04-23T04:31:34.875Z,24.00
2023-04-23T04:34:04.497Z,23.90
2023-04-23T04:36:33.069Z,23.90
2023-04-23T04:39:01.496Z,23.90
2023-04-23T04:41:30.171Z,23.90
2023-04-23T04:43:58.635Z,23.90
2023-04-23T04:46:29.221Z,23.90
2023-04-23T04:48:57.537Z,23.80
2023-04-23T04:51:27.100Z,23.80
2023-04-23T04:53:55.733Z,23.80
2023-04-23T04:56:25.879Z,23.80
2023-04-23T04:58:54.160Z,23.80
2023-04-23T05:01:23.217Z,23.80
2023-04-23T05:03:51.515Z,23.70
2023-04-23T05:06:19.875Z,23.80
2023-04-23T05:08:49.416Z,23.70
2023-04-23T05:11:18.120Z,23.70
2023-04-23T05:13:48.680Z,23.70
2023-04-23T05:16:16.853Z,23.70
2023-04-23T05:18:44.977Z,23.70
2023-04-23T05:21:13.115Z,23.70
2023-04-23T05:23:41.269Z,23.70
2023-04-23T05:26:11.119Z,23.70
2023-04-23T05:28:39.239Z,23.70
2023-04-23T05:31:07.415Z,23.70
2023-04-23T05:33:42.841Z,23.70
2023-04-23T05:36:17.164Z,23.70
2023-04-23T05:38:45.273Z,23.70
2023-04-23T05:41:14.828Z,23.70
2023-04-23T05:43:43.463Z,23.60
2023-04-23T05:46:11.618Z,23.60
2023-04-23T05:48:39.767Z,23.60
2023-04-23T05:51:07.934Z,23.60
2023-04-23T05:53:36.381Z,23.60
2023-04-23T05:56:04.615Z,23.60
2023-04-23T05:58:34.079Z,23.60
2023-04-23T06:01:02.996Z,23.60
2023-04-23T06:03:31.981Z,23.60
2023-04-23T06:06:00.343Z,23.60
2023-04-23T06:08:28.528Z,23.60
2023-04-23T06:10:56.922Z,23.70
2023-04-23T06:13:25.096Z,23.70
2023-04-23T06:15:54.755Z,23.70
2023-04-23T06:18:22.893Z,23.70
2023-04-23T06:20:51.533Z,23.70
2023-04-23T06:23:19.722Z,23.70
2023-04-23T06:25:47.820Z,23.70
2023-04-23T06:28:16.195Z,23.80
2023-04-23T06:31:02.688Z,23.80
2023-04-23T06:33:30.955Z,23.80
2023-04-23T06:35:59.063Z,23.80
2023-04-23T06:38:27.176Z,23.80
2023-04-23T06:40:55.685Z,23.80
2023-04-23T06:43:23.977Z,23.80
2023-04-23T06:46:13.692Z,23.80
2023-04-23T06:48:41.807Z,23.80
2023-04-23T06:51:10.014Z,23.80
2023-04-23T06:53:38.308Z,23.80
2023-04-23T06:56:07.853Z,23.80
2023-04-23T06:58:36.080Z,23.80
2023-04-23T07:01:15.093Z,23.80
2023-04-23T07:03:45.205Z,23.80
2023-04-23T07:06:13.564Z,23.80
2023-04-23T07:08:41.719Z,23.70
2023-04-23T07:11:10.686Z,23.70
2023-04-23T07:13:38.817Z,23.70
2023-04-23T07:16:07.069Z,23.70
2023-04-23T07:18:36.548Z,23.70
2023-04-23T07:21:04.821Z,23.70
2023-04-23T07:23:32.960Z,23.70
2023-04-23T07:26:01.091Z,23.70
2023-04-23T07:28:29.211Z,23.70
2023-04-23T07:30:57.880Z,23.70
2023-04-23T07:33:26.494Z,23.70
2023-04-23T07:35:55.975Z,23.70
2023-04-23T07:38:24.126Z,23.70
2023-04-23T07:40:52.283Z,23.70
2023-04-23T07:43:20.469Z,23.70
2023-04-23T07:45:48.734Z,23.70
2023-04-23T07:48:16.978Z,23.70
2023-04-23T07:50:45.141Z,23.80
2023-04-23T07:53:14.637Z,23.80
2023-04-23T07:55:42.850Z,23.80
2023-04-23T07:58:10.973Z,23.80
2023-04-23T08:00:39.222Z,23.80
2023-04-23T08:03:07.433Z,23.80
2023-04-23T08:05:37.306Z,23.80
2023-04-23T08:08:05.556Z,23.80
2023-04-23T08:10:35.247Z,23.80
2023-04-23T08:13:03.845Z,23.90
2023-04-23T08:15:31.971Z,23.90
2023-04-23T08:18:00.153Z,23.90
2023-04-23T08:20:28.342Z,23.90
2023-04-23T08:22:56.762Z,24.00
2023-04-23T08:25:25.056Z,24.00
2023-04-23T08:27:54.604Z,24.00
2023-04-23T08:30:22.922Z,24.00
2023-04-23T08:32:54.006Z,24.00
2023-04-23T08:35:22.878Z,24.10
2023-04-23T08:37:51.366Z,24.10
2023-04-23T08:40:19.583Z,24.10
2023-04-23T08:42:51.662Z,24.10
2023-04-23T08:45:21.444Z,24.10
2023-04-23T08:47:49.652Z,24.10
2023-04-23T08:50:19.951Z,24.10
2023-04-23T08:52:51.555Z,24.10
2023-04-23T08:55:21.727Z,24.10
2023-04-23T08:57:50.715Z,24.10
2023-04-23T09:00:23.136Z,24.10
2023-04-23T09:02:51.827Z,24.10
2023-04-23T09:05:20.078Z,24.00
2023-04-23T09:07:48.326Z,24.00
2023-04-23T09:10:18.671Z,24.00
2023-04-23T09:12:48.267Z,24.00
2023-04-23T09:15:16.545Z,24.00
2023-04-23T09:17:48.029Z,24.00
2023-04-23T09:20:17.658Z,24.10
2023-04-23T09:22:48.253Z,24.10
2023-04-23T09:25:18.270Z,24.10
2023-04-23T09:27:47.337Z,24.10
2023-04-23T09:30:16.380Z,24.10
2023-04-23T09:32:47.774Z,24.10
2023-04-23T09:35:17.563Z,24.10
2023-04-23T09:37:48.645Z,24.10
2023-04-23T09:40:21.520Z,24.10
2023-04-23T09:42:51.110Z,24.10
2023-04-23T09:45:19.322Z,24.10
2023-04-23T09:47:53.193Z,24.20
2023-04-23T09:50:32.376Z,24.20
2023-04-23T09:53:00.608Z,24.20
2023-04-23T09:55:30.932Z,24.20
2023-04-23T09:57:59.937Z,24.30
2023-04-23T10:00:33.144Z,24.30
2023-04-23T10:03:02.928Z,24.30
2023-04-23T10:05:41.067Z,24.30
2023-04-23T10:08:19.669Z,24.30
2023-04-23T10:10:57.492Z,24.40
2023-04-23T10:13:36.364Z,24.40
2023-04-23T10:16:20.679Z,24.40
2023-04-23T10:18:55.241Z,24.40
2023-04-23T10:21:33.947Z,24.40
2023-04-23T10:24:08.367Z,24.40
2023-04-23T10:26:38.681Z,24.40
2023-04-23T10:29:10.372Z,24.50
2023-04-23T10:31:38.732Z,24.50
2023-04-23T10:34:10.293Z,24.50
2023-04-23T10:36:39.312Z,24.50
2023-04-23T10:39:10.442Z,24.50
2023-04-23T10:41:41.232Z,24.50
2023-04-23T10:44:15.869Z,24.50
2023-04-23T10:46:53.996Z,24.60
2023-04-23T10:49:24.656Z,24.60
2023-04-23T10:54:32.984Z,24.60
2023-04-23T10:57:03.440Z,24.60
2023-04-23T10:59:33.480Z,24.60
2023-04-23T11:02:09.717Z,24.60
2023-04-23T11:04:46.940Z,24.60
2023-04-23T11:07:15.949Z,24.60
2023-04-23T11:09:50.214Z,24.60
2023-04-23T11:12:33.210Z,24.60
2023-04-23T11:15:12.930Z,24.60
2023-04-23T11:18:00.627Z,24.60
2023-04-23T11:20:30.286Z,24.60
2023-04-23T11:22:58.411Z,24.60
2023-04-23T11:25:28.216Z,24.70
2023-04-23T11:27:58.549Z,24.70
2023-04-23T11:30:28.514Z,24.80
2023-04-23T11:32:59.939Z,24.90
2023-04-23T11:35:32.404Z,25.00
2023-04-23T11:38:00.575Z,25.10
2023-04-23T11:40:31.060Z,25.20
2023-04-23T11:42:59.488Z,25.40
2023-04-23T11:45:29.261Z,25.50
2023-04-23T11:47:59.452Z,25.70
2023-04-23T11:50:30.870Z,25.80
2023-04-23T11:52:59.195Z,25.90
2023-04-23T11:55:27.336Z,25.90
2023-04-23T11:57:55.479Z,25.90
2023-04-23T12:00:26.446Z,25.80
2023-04-23T12:02:56.431Z,25.70
2023-04-23T12:05:28.916Z,25.60
2023-04-23T12:08:08.923Z,25.50
2023-04-23T12:10:44.179Z,25.50
2023-04-23T12:13:16.431Z,25.50
2023-04-23T12:15:50.099Z,25.50
2023-04-23T12:18:18.534Z,25.60
2023-04-23T12:20:47.061Z,25.60
2023-04-23T12:23:16.575Z,25.70
2023-04-23T12:25:44.817Z,25.70
2023-04-23T12:28:12.989Z,25.80
2023-04-23T12:30:45.210Z,25.80
2023-04-23T12:33:13.492Z,25.90
2023-04-23T12:35:42.486Z,25.90
2023-04-23T12:38:24.886Z,25.90
2023-04-23T12:40:53.281Z,25.80
2023-04-23T12:43:21.394Z,25.80
2023-04-23T12:45:49.862Z,25.80
2023-04-23T12:48:18.083Z,25.90
2023-04-23T12:50:46.539Z,25.90
2023-04-23T12:53:14.884Z,26.00
2023-04-23T12:55:45.730Z,26.00
2023-04-23T12:58:14.093Z,26.00
2023-04-23T13:00:42.284Z,25.90
2023-04-23T13:03:12.699Z,25.80
2023-04-23T13:05:40.878Z,25.70
2023-04-23T13:08:09.062Z,25.60
2023-04-23T13:10:38.087Z,25.60
2023-04-23T13:13:07.730Z,25.50
2023-04-23T13:15:35.882Z,25.50
2023-04-23T13:18:04.037Z,25.60
2023-04-23T13:20:32.197Z,25.60
2023-04-23T13:23:01.488Z,25.60
2023-04-23T13:25:29.654Z,25.60
2023-04-23T13:27:57.810Z,25.60
2023-04-23T13:30:27.400Z,25.70
2023-04-23T13:32:56.858Z,25.70
2023-04-23T13:35:25.212Z,25.70
2023-04-23T13:37:53.288Z,25.80
2023-04-23T13:40:21.530Z,25.80
2023-04-23T13:42:50.367Z,25.80
2023-04-23T13:45:18.672Z,25.80
2023-04-23T13:47:48.505Z,25.90
2023-04-23T13:50:16.881Z,25.80
2023-04-23T13:52:45.002Z,25.80
2023-04-23T13:55:13.183Z,25.70
2023-04-23T13:57:41.554Z,25.70
2023-04-23T14:00:12.849Z,25.70
2023-04-23T14:02:41.663Z,25.70
2023-04-23T14:05:11.608Z,25.70
2023-04-23T14:07:39.685Z,25.80
2023-04-23T14:10:08.904Z,25.80
2023-04-23T14:12:37.102Z,25.80
2023-04-23T14:15:05.770Z,25.80
2023-04-23T14:17:33.927Z,25.90
2023-04-23T14:20:02.098Z,25.90
2023-04-23T14:22:31.648Z,25.80
2023-04-23T14:25:04.851Z,25.80
2023-04-23T14:27:35.406Z,25.80
2023-04-23T14:30:06.170Z,25.80
2023-04-23T14:32:34.323Z,25.80
2023-04-23T14:35:03.560Z,25.80
2023-04-23T14:37:33.142Z,25.80
2023-04-23T14:40:01.397Z,25.80
2023-04-23T14:42:29.590Z,25.80
2023-04-23T14:45:00.494Z,25.80
2023-04-23T14:47:28.683Z,25.80
2023-04-23T14:49:57.908Z,25.80
2023-04-23T14:52:26.113Z,25.80
2023-04-23T14:54:56.282Z,25.80
2023-04-23T14:57:24.513Z,25.80
2023-04-23T14:59:52.636Z,25.80
2023-04-23T15:02:20.938Z,25.80
2023-04-23T15:04:49.130Z,25.80
2023-04-23T15:07:17.274Z,25.80
2023-04-23T15:09:45.347Z,25.90
2023-04-23T15:12:42.834Z,25.90
2023-04-23T15:15:16.840Z,25.90
2023-04-23T15:17:45.121Z,25.90
2023-04-23T15:20:13.371Z,25.90
2023-04-23T15:22:41.522Z,25.90
2023-04-23T15:25:09.851Z,25.90
2023-04-23T15:27:39.391Z,25.90
2023-04-23T15:30:08.839Z,25.90
2023-04-23T15:32:36.993Z,25.80
2023-04-23T15:35:05.661Z,25.80
2023-04-23T15:37:33.770Z,25.70
2023-04-23T15:40:01.985Z,25.70
2023-04-23T15:42:30.161Z,25.60
2023-04-23T15:44:59.670Z,25.60
2023-04-23T15:47:27.923Z,25.60
2023-04-23T15:49:56.162Z,25.50
2023-04-23T15:52:24.337Z,25.50
2023-04-23T15:54:52.502Z,25.50
2023-04-23T15:57:20.928Z,25.40
2023-04-23T15:59:49.564Z,25.40
2023-04-23T16:02:19.297Z,25.40
2023-04-23T16:04:47.661Z,25.40
2023-04-23T16:07:16.179Z,25.30
2023-04-23T16:09:44.460Z,25.30
2023-04-23T16:12:13.460Z,25.30
2023-04-23T16:14:42.724Z,25.30
2023-04-23T16:17:10.962Z,25.20
2023-04-23T16:19:40.816Z,25.20
2023-04-23T16:22:09.350Z,25.20
2023-04-23T16:24:37.452Z,25.20
2023-04-23T16:27:06.715Z,25.20
2023-04-23T16:29:34.870Z,25.30
2023-04-23T16:32:03.014Z,25.20
2023-04-23T16:34:31.174Z,25.30
2023-04-23T16:37:00.743Z,25.30
2023-04-23T16:39:29.023Z,25.40
2023-04-23T16:41:57.186Z,25.50
2023-04-23T16:44:25.687Z,25.50
2023-04-23T16:46:54.159Z,25.50
2023-04-23T16:49:22.377Z,25.60
2023-04-23T16:51:50.553Z,25.60
2023-04-23T16:54:20.462Z,25.60
2023-04-23T16:56:48.726Z,25.60
2023-04-23T16:59:17.366Z,25.60
2023-04-23T17:01:45.551Z,25.60
2023-04-23T17:04:13.901Z,25.60
2023-04-23T17:06:42.307Z,25.60
2023-04-23T17:09:10.513Z,25.60
2023-04-23T17:11:40.091Z,25.60
2023-04-23T17:14:08.222Z,25.50
2023-04-23T17:16:36.499Z,25.50
2023-04-23T17:19:04.805Z,25.50
2023-04-23T17:21:33.432Z,25.50
2023-04-23T17:24:01.595Z,25.50
2023-04-23T17:26:29.824Z,25.50
2023-04-23T17:28:59.399Z,25.40
2023-04-23T17:31:27.578Z,25.40
2023-04-23T17:33:56.416Z,25.40
2023-04-23T17:36:24.733Z,25.40
2023-04-23T17:38:53.038Z,25.40
2023-04-23T17:41:22.853Z,25.30
2023-04-23T17:43:51.536Z,25.30
2023-04-23T17:46:21.377Z,25.30
2023-04-23T17:48:49.663Z,25.30
2023-04-23T17:51:17.914Z,25.30
2023-04-23T17:53:48.341Z,25.30
2023-04-23T17:56:16.709Z,25.30
2023-04-23T17:58:45.225Z,25.30
2023-04-23T18:01:13.603Z,25.20
2023-04-23T18:03:43.456Z,25.20
2023-04-23T18:06:11.745Z,25.20
2023-04-23T18:08:42.655Z,25.20
2023-04-23T18:11:11.167Z,25.10
2023-04-23T18:13:39.399Z,25.10
2023-04-23T18:16:07.530Z,25.10
2023-04-23T18:18:35.741Z,25.10
2023-04-23T18:21:05.854Z,25.10
2023-04-23T18:23:35.989Z,25.10
2023-04-23T18:26:04.383Z,25.10
2023-04-23T18:28:32.876Z,25.10
2023-04-23T18:31:02.589Z,25.10
2023-04-23T18:33:36.763Z,25.10
2023-04-23T18:36:19.953Z,25.00
2023-04-23T18:38:48.145Z,25.00
2023-04-23T18:41:16.378Z,25.00
2023-04-23T18:43:44.952Z,25.00
2023-04-23T18:46:14.295Z,25.00
2023-04-23T18:48:48.719Z,25.00
2023-04-23T18:51:27.883Z,25.00
2023-04-23T18:53:56.463Z,25.00
2023-04-23T18:56:26.415Z,25.00
2023-04-23T18:58:55.511Z,25.00
2023-04-23T19:01:24.538Z,24.90
2023-04-23T19:03:53.173Z,24.90
2023-04-23T19:06:22.849Z,24.90
2023-04-23T19:08:51.058Z,24.90
2023-04-23T19:11:19.356Z,24.90
2023-04-23T19:13:47.734Z,24.90
2023-04-23T19:16:18.380Z,24.90
2023-04-23T19:18:47.133Z,24.90
2023-04-23T19:21:15.376Z,24.90
2023-04-23T19:23:45.601Z,24.90
2023-04-23T19:26:14.966Z,24.90
2023-04-23T19:28:43.782Z,24.80
2023-04-23T19:31:12.476Z,24.80
2023-04-23T19:33:45.703Z,24.80
2023-04-23T19:36:14.118Z,24.80
2023-04-23T19:38:42.347Z,24.80
2023-04-23T19:41:11.983Z,24.80
2023-04-23T19:43:40.435Z,24.80
2023-04-23T19:46:08.644Z,24.80
2023-04-23T19:48:37.914Z,24.80
2023-04-23T19:51:06.174Z,24.80
2023-04-23T19:53:34.291Z,24.80
2023-04-23T19:56:02.729Z,24.80
2023-04-23T19:58:32.287Z,24.80
2023-04-23T20:01:00.514Z,24.80
2023-04-23T20:03:29.824Z,24.80
2023-04-23T20:05:58.434Z,24.80
2023-04-23T20:08:29.415Z,24.80
2023-04-23T20:10:58.725Z,24.80
2023-04-23T20:13:26.901Z,24.70
2023-04-23T20:15:56.466Z,24.70
2023-04-23T20:18:25.650Z,24.70
2023-04-23T20:20:53.955Z,24.70
2023-04-23T20:23:22.053Z,24.70
2023-04-23T20:25:50.193Z,24.70
2023-04-23T20:28:18.537Z,24.70
2023-04-23T20:30:46.675Z,24.70
2023-04-23T20:33:18.703Z,24.70
2023-04-23T20:35:47.716Z,24.70
2023-04-23T20:38:19.146Z,24.70
2023-04-23T20:40:47.497Z,24.70
2023-04-23T20:43:16.781Z,24.70
2023-04-23T20:45:46.645Z,24.60
2023-04-23T20:48:16.767Z,24.60
2023-04-23T20:50:44.955Z,24.60
2023-04-23T20:53:13.357Z,24.60
2023-04-23T20:55:41.563Z,24.60
2023-04-23T20:58:09.785Z,24.60
2023-04-23T21:00:38.184Z,24.60
2023-04-23T21:03:07.058Z,24.60
2023-04-23T21:05:38.258Z,24.60
2023-04-23T21:08:06.644Z,24.50
2023-04-23T21:10:34.776Z,24.50
2023-04-23T21:13:02.896Z,24.50
2023-04-23T21:15:34.023Z,24.50
2023-04-23T21:18:02.626Z,24.50
2023-04-23T21:20:31.180Z,24.50
2023-04-23T21:23:00.644Z,24.50
2023-04-23T21:25:28.837Z,24.40
2023-04-23T21:27:58.099Z,24.40
2023-04-23T21:30:46.032Z,24.40
2023-04-23T21:33:14.282Z,24.40
2023-04-23T21:35:42.564Z,24.40
2023-04-23T21:38:12.341Z,24.40
2023-04-23T21:40:41.341Z,24.40
2023-04-23T21:43:09.578Z,24.40
2023-04-23T21:45:37.989Z,24.40
2023-04-23T21:48:06.515Z,24.40
2023-04-23T21:50:34.869Z,24.40
2023-04-23T21:53:04.100Z,24.40
2023-04-23T21:55:33.729Z,24.40
2023-04-23T22:00:33.249Z,24.30
2023-04-23T22:03:02.350Z,24.30
2023-04-23T22:05:31.232Z,24.30
2023-04-23T22:07:59.501Z,24.30
2023-04-23T22:10:27.614Z,24.30
2023-04-23T22:12:57.089Z,24.30
2023-04-23T22:15:26.191Z,24.30
2023-04-23T22:17:59.117Z,24.30
2023-04-23T22:20:30.557Z,24.30
2023-04-23T22:22:58.805Z,24.30
2023-04-23T22:25:27.113Z,24.30
2023-04-23T22:27:56.723Z,24.30
2023-04-23T22:30:24.840Z,24.30
2023-04-23T22:32:53.109Z,24.20
2023-04-23T22:35:21.437Z,24.20
2023-04-23T22:37:49.581Z,24.20
2023-04-23T22:40:17.795Z,24.20
2023-04-23T22:42:45.916Z,24.20
2023-04-23T22:45:15.784Z,24.20
2023-04-23T22:47:44.012Z,24.20
2023-04-23T22:50:12.592Z,24.20
2023-04-23T22:52:41.424Z,24.20
2023-04-23T22:55:10.155Z,24.20
2023-04-23T22:57:38.256Z,24.10
2023-04-23T23:00:09.947Z,24.10
2023-04-23T23:02:40.069Z,24.10
2023-04-23T23:05:09.648Z,24.10
2023-04-23T23:07:38.506Z,24.10
2023-04-23T23:10:08.787Z,24.10
2023-04-23T23:12:37.071Z,24.10
2023-04-23T23:15:05.982Z,24.10
2023-04-23T23:17:34.173Z,24.10
2023-04-23T23:20:06.505Z,24.10
2023-04-23T23:22:34.625Z,24.10
2023-04-23T23:25:02.755Z,24.10
2023-04-23T23:27:31.091Z,24.10
2023-04-23T23:29:59.232Z,24.10
2023-04-23T23:32:27.385Z,24.10
2023-04-23T23:34:56.112Z,24.00
2023-04-23T23:37:25.668Z,24.00
2023-04-23T23:39:53.725Z,24.00
2023-04-23T23:42:21.891Z,24.00
2023-04-23T23:44:50.015Z,24.00
2023-04-23T23:47:18.331Z,24.00
2023-04-23T23:49:46.441Z,24.00
2023-04-23T23:52:14.732Z,24.00
2023-04-23T23:54:44.192Z,24.00
2023-04-23T23:57:12.300Z,24.00
2023-04-23T23:59:40.836Z,24.00
